Time;durP1;ratioP1;P1;durP2;ratioP2;P2;SDS_P1;SDS_P2;PMS_P1;PMS_P2;Temp;Humidity;BMP_temperature;BMP_pressure;BME280_temperature;BME280_humidity;BME280_pressure;Samples;Min_cycle;Max_cycle;Signal;HPM_P1;HPM_P2
2023/01/29 00:01:58;;;;;;;41.22;13.90;;;;;;;-1.21;100.00;99357.44;4517066;31;20471;-72
2023/01/29 00:04:25;;;;;;;42.05;13.75;;;;;;;-1.25;100.00;99349.81;4516649;31;20179;-72
2023/01/29 00:06:52;;;;;;;38.83;14.80;;;;;;;-1.21;100.00;99350.59;4516579;31;20079;-72
2023/01/29 00:09:20;;;;;;;40.95;15.00;;;;;;;-1.14;100.00;99353.78;4517676;31;20115;-72
2023/01/29 00:11:47;;;;;;;43.85;14.93;;;;;;;-1.10;100.00;99355.38;4532685;31;20107;-72
2023/01/29 00:14:14;;;;;;;36.72;13.38;;;;;;;-1.05;100.00;99352.66;4517800;31;20158;-72
2023/01/29 00:16:41;;;;;;;40.25;14.23;;;;;;;-1.07;100.00;99355.28;4532597;31;20113;-72
2023/01/29 00:19:09;;;;;;;40.40;13.55;;;;;;;-0.97;100.00;99351.53;4532496;31;20147;-72
2023/01/29 00:21:36;;;;;;;39.53;14.55;;;;;;;-0.95;100.00;99360.03;4530018;31;20256;-72
2023/01/29 00:24:04;;;;;;;36.83;14.07;;;;;;;-0.97;100.00;99356.69;4516458;31;20111;-72
2023/01/29 00:26:32;;;;;;;35.90;14.75;;;;;;;-1.00;100.00;99361.06;4516525;31;20099;-72
2023/01/29 00:29:01;;;;;;;44.03;15.52;;;;;;;-0.98;100.00;99362.69;4516427;31;20102;-72
2023/01/29 00:31:29;;;;;;;39.85;14.40;;;;;;;-1.03;100.00;99366.31;4516546;31;20381;-72
2023/01/29 00:33:57;;;;;;;37.17;14.02;;;;;;;-1.12;100.00;99365.72;4516691;31;20452;-72
2023/01/29 00:36:25;;;;;;;37.33;14.48;;;;;;;-1.16;100.00;99366.69;4516355;31;20102;-72
2023/01/29 00:39:01;;;;;;;48.35;14.73;;;;;;;-1.16;100.00;99369.25;4516402;31;20119;-72
2023/01/29 00:47:03;;;;;;;42.13;15.10;;;;;;;-1.33;100.00;99374.94;4516376;31;20083;-72
2023/01/29 00:49:30;;;;;;;37.83;15.30;;;;;;;-1.29;100.00;99375.69;4516511;31;20404;-72
2023/01/29 00:54:43;;;;;;;34.05;14.05;;;;;;;-1.29;100.00;99378.25;4516243;31;20561;-72
2023/01/29 00:57:10;;;;;;;34.53;12.85;;;;;;;-1.27;100.00;99376.50;4516193;31;20155;-72
2023/01/29 00:59:37;;;;;;;43.58;14.32;;;;;;;-1.29;100.00;99384.25;4516113;31;20210;-72
2023/01/29 01:04:51;;;;;;;37.28;13.10;;;;;;;-1.37;100.00;99377.66;4517295;31;20459;-72
2023/01/29 01:07:18;;;;;;;37.20;14.57;;;;;;;-1.43;100.00;99371.78;4517156;31;20479;-72
2023/01/29 01:12:32;;;;;;;43.00;14.80;;;;;;;-1.38;100.00;99374.22;4533238;31;20527;-71
2023/01/29 01:14:59;;;;;;;35.40;13.60;;;;;;;-1.33;100.00;99380.09;4532557;31;20405;-71
2023/01/29 01:17:26;;;;;;;31.40;13.43;;;;;;;-1.37;100.00;99373.34;4533198;31;20100;-71
2023/01/29 01:19:54;;;;;;;40.33;14.45;;;;;;;-1.39;100.00;99377.69;4533061;31;20087;-71
2023/01/29 01:22:21;;;;;;;36.65;13.13;;;;;;;-1.43;100.00;99373.53;4524330;31;20095;-71
2023/01/29 01:24:48;;;;;;;38.83;13.02;;;;;;;-1.40;100.00;99378.56;4516980;31;20607;-72
2023/01/29 01:27:18;;;;;;;30.40;13.48;;;;;;;-1.37;100.00;99378.47;4517023;31;20162;-71
2023/01/29 01:29:45;;;;;;;36.53;13.55;;;;;;;-1.40;100.00;99383.72;4516972;31;20088;-71
2023/01/29 01:32:13;;;;;;;39.28;13.02;;;;;;;-1.38;100.00;99381.09;4517104;31;20088;-72
2023/01/29 01:34:40;;;;;;;33.85;13.60;;;;;;;-1.44;100.00;99382.97;4517239;31;20560;-71
2023/01/29 01:37:07;;;;;;;40.20;14.38;;;;;;;-1.33;100.00;99382.66;4516795;31;20092;-71
2023/01/29 01:39:34;;;;;;;41.78;13.95;;;;;;;-1.37;100.00;99382.78;4516769;31;20473;-71
2023/01/29 01:42:02;;;;;;;36.50;12.90;;;;;;;-1.38;100.00;99391.37;4516909;31;20155;-71
2023/01/29 01:45:16;;;;;;;30.02;13.07;;;;;;;-1.35;100.00;99388.72;4517151;31;20088;-71
2023/01/29 01:47:47;;;;;;;35.78;14.57;;;;;;;-1.34;100.00;99393.81;4451507;32;20128;-71
2023/01/29 01:50:21;;;;;;;38.05;12.88;;;;;;;-1.38;100.00;99393.94;4451432;32;20160;-71
2023/01/29 01:52:52;;;;;;;33.25;11.35;;;;;;;-1.33;100.00;99400.66;4451481;32;20442;-71
2023/01/29 01:55:23;;;;;;;35.22;13.70;;;;;;;-1.28;100.00;99393.63;4438811;32;20093;-71
2023/01/29 01:57:54;;;;;;;33.03;12.00;;;;;;;-1.32;100.00;99389.47;4451455;32;20537;-71
2023/01/29 02:00:24;;;;;;;42.35;14.48;;;;;;;-1.31;100.00;99403.16;4438990;32;20123;-71
2023/01/29 02:11:38;;;;;;;31.67;11.93;;;;;;;-1.39;100.00;99400.84;4435630;32;20148;-71
2023/01/29 02:14:05;;;;;;;32.67;11.32;;;;;;;-1.38;100.00;99392.22;4435840;32;20109;-71
2023/01/29 02:16:34;;;;;;;32.47;12.23;;;;;;;-1.40;100.00;99401.72;4422694;32;20089;-72
2023/01/29 02:19:05;;;;;;;34.63;11.73;;;;;;;-1.48;100.00;99406.25;4496664;31;20083;-71
2023/01/29 02:21:52;;;;;;;25.27;12.10;;;;;;;-1.45;100.00;99398.44;4504433;31;20112;-71
2023/01/29 02:24:49;;;;;;;29.23;11.32;;;;;;;-1.55;100.00;99403.00;4531388;31;20100;-71
2023/01/29 02:27:36;;;;;;;32.10;11.82;;;;;;;-1.66;100.00;99411.03;4532456;31;20134;-71
2023/01/29 02:30:19;;;;;;;39.22;12.15;;;;;;;-1.72;100.00;99412.94;4531019;31;20428;-71
2023/01/29 02:32:57;;;;;;;24.58;9.32;;;;;;;-1.66;100.00;99413.59;4531082;31;20490;-71
2023/01/29 02:35:31;;;;;;;26.33;11.60;;;;;;;-1.68;100.00;99414.50;4531386;31;20129;-71
2023/01/29 02:38:26;;;;;;;26.42;10.20;;;;;;;-1.63;100.00;99417.81;4517810;31;20095;-71
2023/01/29 02:41:03;;;;;;;38.00;10.73;;;;;;;-1.62;100.00;99419.47;4531153;31;20138;-71
2023/01/29 02:43:58;;;;;;;25.70;10.55;;;;;;;-1.67;100.00;99418.78;4532405;31;20142;-71
2023/01/29 02:46:34;;;;;;;21.50;8.80;;;;;;;-1.63;100.00;99412.69;4530524;31;20137;-71
2023/01/29 02:49:22;;;;;;;21.70;9.25;;;;;;;-1.61;100.00;99422.00;4532526;31;20083;-71
2023/01/29 02:52:24;;;;;;;25.10;8.75;;;;;;;-1.65;100.00;99423.00;4530970;31;20460;-71
2023/01/29 02:55:01;;;;;;;29.12;11.68;;;;;;;-1.54;100.00;99424.41;4530913;31;20167;-71
2023/01/29 02:57:36;;;;;;;26.12;9.15;;;;;;;-1.53;100.00;99424.38;4531068;31;20091;-71
2023/01/29 03:00:07;;;;;;;26.67;10.60;;;;;;;-1.47;100.00;99426.75;4530723;31;20121;-71
2023/01/29 03:02:57;;;;;;;24.27;8.50;;;;;;;-1.45;100.00;99430.13;4532079;31;20088;-71
2023/01/29 03:05:31;;;;;;;23.85;8.73;;;;;;;-1.40;100.00;99429.97;4532004;31;20083;-71
2023/01/29 03:08:05;;;;;;;25.88;8.27;;;;;;;-1.25;100.00;99439.78;4531009;31;20157;-71
2023/01/29 03:10:43;;;;;;;29.70;9.98;;;;;;;-1.23;100.00;99432.03;4521289;31;20089;-71
2023/01/29 03:13:26;;;;;;;22.87;8.38;;;;;;;-1.18;100.00;99419.03;4514569;31;20163;-71
2023/01/29 03:16:17;;;;;;;22.60;8.25;;;;;;;-1.26;100.00;99433.00;4515381;31;20109;-71
2023/01/29 03:19:12;;;;;;;19.62;9.27;;;;;;;-1.22;100.00;99438.03;4515928;31;20087;-71
2023/01/29 03:21:58;;;;;;;22.33;7.95;;;;;;;-1.21;100.00;99434.56;4510005;31;20125;-71
2023/01/29 03:32:51;;;;;;;16.73;6.47;;;;;;;-1.14;100.00;99443.78;4531841;31;20091;-71
2023/01/29 03:35:32;;;;;;;17.85;7.70;;;;;;;-1.08;100.00;99444.41;4530609;31;20107;-71
2023/01/29 03:37:59;;;;;;;18.77;8.00;;;;;;;-1.07;100.00;99438.41;4530037;31;20127;-71
2023/01/29 03:40:35;;;;;;;20.02;8.63;;;;;;;-1.04;100.00;99437.47;4531808;31;20091;-71
2023/01/29 03:43:12;;;;;;;28.15;9.25;;;;;;;-1.10;100.00;99453.09;4530429;31;20083;-71
2023/01/29 03:46:17;;;;;;;22.02;8.40;;;;;;;-1.10;100.00;99447.94;4532111;31;20433;-71
2023/01/29 03:48:54;;;;;;;18.58;6.78;;;;;;;-1.08;100.00;99462.41;4533886;31;20146;-71
2023/01/29 03:51:40;;;;;;;19.08;7.60;;;;;;;-0.97;100.00;99456.09;4533689;31;20107;-71
2023/01/29 03:54:33;;;;;;;17.05;7.18;;;;;;;-0.98;100.00;99452.72;4533611;31;20165;-71
2023/01/29 03:57:22;;;;;;;15.73;7.07;;;;;;;-0.90;100.00;99462.75;4467585;32;20450;-71
2023/01/29 03:59:54;;;;;;;16.30;7.18;;;;;;;-1.00;100.00;99469.06;4468231;32;20558;-71
2023/01/29 04:02:33;;;;;;;15.38;6.43;;;;;;;-0.94;100.00;99456.00;4467954;32;20093;-71
2023/01/29 04:05:05;;;;;;;16.37;6.25;;;;;;;-1.02;100.00;99458.81;4455380;32;20092;-71
2023/01/29 04:07:35;;;;;;;18.98;5.82;;;;;;;-0.92;100.00;99457.66;4454632;32;20515;-71
2023/01/29 04:10:08;;;;;;;18.77;7.80;;;;;;;-0.91;100.00;99459.34;4446030;32;20136;-71
2023/01/29 04:12:40;;;;;;;13.65;6.50;;;;;;;-0.98;100.00;99454.44;4424337;32;20463;-71
2023/01/29 04:15:10;;;;;;;19.58;7.68;;;;;;;-1.01;100.00;99452.81;4423938;32;20123;-71
2023/01/29 04:17:39;;;;;;;18.02;6.87;;;;;;;-0.94;100.00;99459.44;4424050;32;20097;-71
2023/01/29 04:20:08;;;;;;;23.23;6.95;;;;;;;-0.94;100.00;99459.44;4423907;32;20094;-71
2023/01/29 04:22:37;;;;;;;27.67;8.32;;;;;;;-0.88;100.00;99460.97;4455018;32;20117;-71
2023/01/29 04:25:14;;;;;;;22.37;7.70;;;;;;;-0.88;100.00;99460.13;4467676;32;20183;-72
2023/01/29 04:27:48;;;;;;;22.40;8.00;;;;;;;-0.81;100.00;99459.06;4467875;32;20209;-71
2023/01/29 04:30:37;;;;;;;16.40;6.70;;;;;;;-0.92;100.00;99447.38;4468032;32;20309;-71
2023/01/29 04:33:16;;;;;;;19.00;8.13;;;;;;;-0.95;100.00;99452.59;4470252;31;20150;-71
2023/01/29 04:36:09;;;;;;;22.90;8.20;;;;;;;-0.88;100.00;99448.09;4533473;31;20135;-71
2023/01/29 04:39:05;;;;;;;26.92;8.48;;;;;;;-0.84;100.00;99449.69;4533148;31;20075;-71
2023/01/29 04:41:52;;;;;;;20.85;9.00;;;;;;;-0.80;100.00;99459.00;4532138;31;20099;-71
2023/01/29 04:44:32;;;;;;;23.02;7.75;;;;;;;-0.91;100.00;99453.34;4533583;31;20114;-71
2023/01/29 04:47:28;;;;;;;17.20;6.85;;;;;;;-0.94;100.00;99459.44;4532971;31;20162;-71
2023/01/29 04:50:00;;;;;;;18.83;7.97;;;;;;;-0.93;100.00;99455.13;4533456;31;20114;-71
2023/01/29 04:52:46;;;;;;;19.10;7.85;;;;;;;-0.93;100.00;99458.53;4533457;31;20134;-71
2023/01/29 04:55:19;;;;;;;22.95;7.62;;;;;;;-0.97;100.00;99459.53;4533207;31;20085;-71
2023/01/29 04:57:53;;;;;;;18.92;7.03;;;;;;;-0.96;100.00;99463.78;4531444;31;20448;-71
2023/01/29 05:00:31;;;;;;;23.80;7.50;;;;;;;-0.96;100.00;99456.06;4533529;31;20482;-71
2023/01/29 05:02:59;;;;;;;19.00;7.90;;;;;;;-0.90;100.00;99455.03;4531940;31;20107;-71
2023/01/29 05:05:27;;;;;;;25.02;8.35;;;;;;;-0.95;100.00;99455.19;4532161;31;20107;-71
2023/01/29 05:07:56;;;;;;;20.70;7.65;;;;;;;-0.88;100.00;99462.72;4533152;31;20087;-71
2023/01/29 05:10:23;;;;;;;19.42;7.03;;;;;;;-0.89;100.00;99459.31;4533236;31;20098;-71
2023/01/29 05:12:57;;;;;;;22.70;7.53;;;;;;;-0.83;100.00;99460.81;4519075;31;20129;-71
2023/01/29 05:16:17;;;;;;;20.70;7.85;;;;;;;-0.90;100.00;99450.72;4518837;31;20426;-71
2023/01/29 05:18:45;;;;;;;22.25;8.30;;;;;;;-0.88;100.00;99462.72;4405414;32;20196;-71
2023/01/29 05:21:12;;;;;;;19.27;7.35;;;;;;;-1.00;100.00;99462.22;4405698;32;20113;-71
2023/01/29 05:23:51;;;;;;;19.73;8.35;;;;;;;-0.98;100.00;99470.72;4393278;32;20098;-71
2023/01/29 05:29:06;;;;;;;20.30;7.25;;;;;;;-0.97;100.00;99463.81;4394713;32;20159;-71
2023/01/29 05:31:33;;;;;;;20.92;6.37;;;;;;;-0.98;100.00;99455.28;4405724;32;20167;-71
2023/01/29 05:34:00;;;;;;;22.00;7.53;;;;;;;-0.91;100.00;99455.91;4405656;32;20193;-71
2023/01/29 05:36:29;;;;;;;22.73;8.30;;;;;;;-0.87;100.00;99457.50;4405655;32;20128;-71
2023/01/29 05:38:56;;;;;;;17.27;7.62;;;;;;;-0.91;100.00;99458.50;4405472;32;20128;-71
2023/01/29 05:41:24;;;;;;;17.20;7.25;;;;;;;-0.87;100.00;99462.66;4405342;32;20589;-71
2023/01/29 05:43:51;;;;;;;18.52;7.43;;;;;;;-0.84;100.00;99469.44;4405803;32;20194;-71
2023/01/29 05:46:18;;;;;;;14.27;6.70;;;;;;;-0.86;100.00;99459.22;4405295;32;20597;-71
2023/01/29 05:48:45;;;;;;;20.00;8.43;;;;;;;-0.93;100.00;99468.81;4405363;32;20218;-71
2023/01/29 05:51:12;;;;;;;22.05;7.40;;;;;;;-0.96;100.00;99466.34;4405447;32;20102;-71
2023/01/29 05:53:40;;;;;;;18.02;5.87;;;;;;;-0.90;100.00;99466.16;4411127;32;20101;-71
2023/01/29 05:56:07;;;;;;;20.75;7.55;;;;;;;-0.92;100.00;99457.66;4500841;31;20090;-71
2023/01/29 05:58:35;;;;;;;16.35;6.85;;;;;;;-0.99;100.00;99469.00;4516559;31;20092;-71
2023/01/29 06:01:13;;;;;;;19.12;7.82;;;;;;;-0.93;100.00;99468.81;4516763;31;20121;-71
2023/01/29 06:03:41;;;;;;;18.48;6.43;;;;;;;-1.04;100.00;99470.91;4516554;31;20151;-71
2023/01/29 06:06:08;;;;;;;19.85;7.03;;;;;;;-0.97;100.00;99474.97;4516629;31;20091;-71
2023/01/29 06:08:36;;;;;;;17.40;6.18;;;;;;;-0.87;100.00;99469.53;4516224;31;20475;-71
2023/01/29 06:11:03;;;;;;;22.77;8.18;;;;;;;-0.90;100.00;99485.91;4529337;31;20159;-71
2023/01/29 06:13:30;;;;;;;15.70;6.18;;;;;;;-0.91;100.00;99482.50;4518111;31;20099;-71
2023/01/29 06:15:57;;;;;;;16.30;5.65;;;;;;;-0.97;100.00;99474.97;4532509;31;20636;-71
2023/01/29 06:18:25;;;;;;;16.08;6.93;;;;;;;-0.91;100.00;99485.06;4532324;31;20147;-71
2023/01/29 06:20:52;;;;;;;16.45;7.07;;;;;;;-0.88;100.00;99489.25;4532533;31;20113;-72
2023/01/29 06:23:19;;;;;;;17.55;7.32;;;;;;;-0.81;100.00;99482.22;4532385;31;20485;-71
2023/01/29 06:25:46;;;;;;;20.02;6.37;;;;;;;-0.93;100.00;99493.72;4532596;31;20086;-71
2023/01/29 06:28:14;;;;;;;23.08;8.02;;;;;;;-0.92;100.00;99496.25;4532319;31;20224;-71
2023/01/29 06:30:41;;;;;;;18.17;7.47;;;;;;;-0.88;100.00;99498.72;4532364;31;20087;-71
2023/01/29 06:33:08;;;;;;;17.08;7.85;;;;;;;-0.91;100.00;99507.34;4532511;31;20444;-72
2023/01/29 06:35:35;;;;;;;19.48;7.90;;;;;;;-0.90;100.00;99506.47;4532717;31;20179;-72
2023/01/29 06:38:02;;;;;;;16.35;6.72;;;;;;;-0.88;100.00;99520.13;4532206;31;20099;-71
2023/01/29 06:40:30;;;;;;;15.32;6.47;;;;;;;-0.83;100.00;99527.69;4532354;31;20175;-72
2023/01/29 06:42:59;;;;;;;19.23;7.25;;;;;;;-0.93;100.00;99522.84;4532234;31;20091;-72
2023/01/29 06:45:26;;;;;;;17.83;7.75;;;;;;;-0.87;100.00;99523.56;4532139;31;20087;-71
2023/01/29 06:47:55;;;;;;;21.17;7.55;;;;;;;-0.95;100.00;99526.38;4532431;31;20088;-71
2023/01/29 06:50:22;;;;;;;16.25;7.60;;;;;;;-0.98;100.00;99531.59;4532078;31;20096;-72
2023/01/29 06:52:49;;;;;;;16.02;7.78;;;;;;;-0.96;100.00;99528.06;4532415;31;20155;-71
2023/01/29 06:55:16;;;;;;;17.02;7.05;;;;;;;-1.03;100.00;99536.87;4532080;31;20099;-71
2023/01/29 06:57:43;;;;;;;15.45;6.85;;;;;;;-1.03;100.00;99531.75;4532490;31;20083;-72
2023/01/29 07:00:12;;;;;;;21.42;8.82;;;;;;;-0.95;100.00;99534.91;4531968;31;20121;-71
2023/01/29 07:02:39;;;;;;;20.00;6.22;;;;;;;-1.01;100.00;99535.09;4531937;31;20091;-71
2023/01/29 07:05:07;;;;;;;14.63;6.55;;;;;;;-1.06;100.00;99539.50;4532007;31;20091;-71
2023/01/29 07:07:35;;;;;;;17.00;6.85;;;;;;;-0.90;100.00;99538.19;4532057;31;20154;-71
2023/01/29 07:10:03;;;;;;;15.75;6.82;;;;;;;-1.00;100.00;99535.94;4531650;31;20135;-71
2023/01/29 07:12:30;;;;;;;13.50;6.30;;;;;;;-1.05;100.00;99537.81;4532492;31;20151;-71
2023/01/29 07:14:57;;;;;;;11.93;5.47;;;;;;;-0.99;100.00;99528.16;4531462;31;20115;-71
2023/01/29 07:17:24;;;;;;;20.10;6.57;;;;;;;-0.90;100.00;99533.03;4531880;31;20118;-71
2023/01/29 07:19:52;;;;;;;7.68;4.30;;;;;;;-0.87;100.00;99539.00;4532932;31;20471;-71
2023/01/29 07:22:19;;;;;;;13.82;6.25;;;;;;;-0.99;100.00;99538.44;4534114;31;20155;-71
2023/01/29 07:24:47;;;;;;;11.18;4.50;;;;;;;-1.02;100.00;99543.69;4533996;31;20423;-71
2023/01/29 07:27:14;;;;;;;12.45;5.43;;;;;;;-0.97;100.00;99534.13;4533882;31;20088;-71
2023/01/29 07:29:41;;;;;;;11.98;4.07;;;;;;;-1.07;100.00;99530.13;4533984;31;20068;-71
2023/01/29 07:32:09;;;;;;;9.70;4.53;;;;;;;-1.03;100.00;99521.44;4533954;31;20122;-71
2023/01/29 07:34:36;;;;;;;15.70;4.78;;;;;;;-0.97;100.00;99515.25;4533774;31;20158;-71
2023/01/29 07:37:05;;;;;;;12.63;4.53;;;;;;;-1.00;100.00;99513.66;4533605;31;20088;-71
2023/01/29 07:39:32;;;;;;;14.25;5.10;;;;;;;-1.01;100.00;99500.84;4533762;31;20101;-72
2023/01/29 07:42:00;;;;;;;13.20;5.80;;;;;;;-0.96;100.00;99502.34;4533491;31;20119;-71
2023/01/29 07:44:27;;;;;;;11.32;4.47;;;;;;;-0.90;100.00;99496.19;4534083;31;20120;-71
2023/01/29 07:46:55;;;;;;;11.52;4.95;;;;;;;-0.98;100.00;99508.47;4533504;31;20110;-71
2023/01/29 07:49:22;;;;;;;14.32;5.82;;;;;;;-0.90;100.00;99497.03;4533687;31;20095;-71
2023/01/29 07:51:50;;;;;;;13.85;4.37;;;;;;;-0.82;100.00;99503.66;4533775;31;20847;-72
2023/01/29 07:54:17;;;;;;;7.20;3.45;;;;;;;-0.74;100.00;99506.88;4520836;31;20463;-71
2023/01/29 07:56:44;;;;;;;11.88;5.07;;;;;;;-0.85;100.00;99511.47;4517820;31;20504;-71
2023/01/29 07:59:11;;;;;;;11.50;4.87;;;;;;;-0.90;100.00;99509.06;4517768;31;20087;-71
2023/01/29 08:01:39;;;;;;;15.50;5.47;;;;;;;-0.85;100.00;99506.34;4517662;31;20103;-71
2023/01/29 08:04:06;;;;;;;10.15;4.25;;;;;;;-0.82;100.00;99509.66;4517860;31;20158;-71
2023/01/29 08:06:33;;;;;;;15.52;6.25;;;;;;;-0.92;100.00;99503.94;4517540;31;20099;-71
2023/01/29 08:09:01;;;;;;;13.52;5.28;;;;;;;-0.84;100.00;99511.44;4517687;31;20088;-71
2023/01/29 08:11:28;;;;;;;11.70;5.10;;;;;;;-0.72;100.00;99494.78;4532917;31;20441;-71
2023/01/29 08:13:56;;;;;;;13.30;4.62;;;;;;;-0.71;100.00;99499.06;4533764;31;20143;-72
2023/01/29 08:16:23;;;;;;;13.23;5.45;;;;;;;-0.61;100.00;99500.41;4533449;31;20111;-71
2023/01/29 08:18:50;;;;;;;12.32;5.93;;;;;;;-0.72;100.00;99499.94;4519303;31;20437;-71
2023/01/29 08:21:17;;;;;;;13.43;5.15;;;;;;;-0.72;100.00;99502.50;4533372;31;20110;-71
2023/01/29 08:23:45;;;;;;;14.00;5.10;;;;;;;-0.62;100.00;99500.47;4533856;31;20109;-72
2023/01/29 08:26:12;;;;;;;13.38;5.05;;;;;;;-0.62;100.00;99500.47;4533691;31;20888;-71
2023/01/29 08:28:39;;;;;;;18.17;6.32;;;;;;;-0.55;100.00;99502.78;4533804;31;20091;-71
2023/01/29 08:31:16;;;;;;;9.82;4.12;;;;;;;-0.55;100.00;99513.09;4533392;31;20103;-72
2023/01/29 08:33:43;;;;;;;10.95;4.15;;;;;;;-0.67;100.00;99508.34;4533878;31;20166;-72
2023/01/29 08:36:10;;;;;;;10.45;4.55;;;;;;;-0.74;100.00;99519.72;4533313;31;20444;-71
2023/01/29 08:38:38;;;;;;;10.93;4.55;;;;;;;-0.56;100.00;99515.72;4533375;31;20207;-71
2023/01/29 08:41:06;;;;;;;15.70;4.75;;;;;;;-0.63;100.00;99520.22;4533083;31;20154;-72
2023/01/29 08:43:35;;;;;;;7.72;3.62;;;;;;;-0.56;100.00;99520.84;4532023;31;20115;-71
2023/01/29 08:46:03;;;;;;;9.27;4.07;;;;;;;-0.57;100.00;99524.34;4532957;31;20109;-71
2023/01/29 08:48:32;;;;;;;5.90;3.78;;;;;;;-0.49;100.00;99529.25;4532171;31;20533;-71
2023/01/29 08:51:01;;;;;;;9.88;4.30;;;;;;;-0.57;100.00;99529.50;4533420;31;20447;-71
2023/01/29 08:53:29;;;;;;;11.15;5.18;;;;;;;-0.68;100.00;99546.97;4533450;31;20133;-71
2023/01/29 08:55:57;;;;;;;9.43;4.87;;;;;;;-0.60;100.00;99535.56;4533073;31;20135;-72
2023/01/29 08:58:24;;;;;;;10.15;4.60;;;;;;;-0.59;100.00;99542.41;4533291;31;20138;-72
2023/01/29 09:00:51;;;;;;;11.23;5.57;;;;;;;-0.64;100.00;99548.56;4533205;31;20104;-72
2023/01/29 09:03:18;;;;;;;10.05;4.28;;;;;;;-0.75;100.00;99551.47;4533119;31;20495;-71
2023/01/29 09:05:45;;;;;;;9.95;5.28;;;;;;;-0.81;100.00;99547.34;4533423;31;20127;-71
2023/01/29 09:08:12;;;;;;;10.20;5.30;;;;;;;-0.74;100.00;99548.03;4533092;31;20104;-72
2023/01/29 09:10:40;;;;;;;7.12;3.58;;;;;;;-0.78;100.00;99549.00;4533021;31;20096;-71
2023/01/29 09:13:07;;;;;;;9.25;4.37;;;;;;;-0.81;100.00;99560.22;4533075;31;20494;-72
2023/01/29 09:15:34;;;;;;;8.93;4.40;;;;;;;-0.88;100.00;99557.88;4532915;31;20096;-72
2023/01/29 09:18:03;;;;;;;9.50;3.90;;;;;;;-0.83;100.00;99561.13;4533034;31;20088;-72
2023/01/29 09:20:30;;;;;;;9.27;4.28;;;;;;;-0.73;100.00;99559.97;4532953;31;20126;-71
2023/01/29 09:22:58;;;;;;;8.80;4.07;;;;;;;-0.83;100.00;99556.84;4533137;31;20125;-72
2023/01/29 09:25:25;;;;;;;10.80;3.97;;;;;;;-0.78;100.00;99562.69;4533074;31;20424;-71
2023/01/29 09:27:53;;;;;;;6.75;3.83;;;;;;;-0.77;100.00;99577.25;4533005;31;20087;-71
2023/01/29 09:30:20;;;;;;;9.50;3.67;;;;;;;-0.79;100.00;99567.88;4533116;31;20582;-72
2023/01/29 09:32:48;;;;;;;8.35;4.12;;;;;;;-0.71;100.00;99563.38;4532987;31;20449;-72
2023/01/29 09:35:21;;;;;;;8.70;3.95;;;;;;;-0.62;100.00;99562.22;4533017;31;20147;-71
2023/01/29 09:37:49;;;;;;;7.80;3.50;;;;;;;-0.80;100.00;99572.19;4532734;31;20460;-71
2023/01/29 09:40:36;;;;;;;8.20;3.42;;;;;;;-0.70;100.00;99580.47;4532787;31;20527;-72
2023/01/29 09:43:17;;;;;;;8.98;4.68;;;;;;;-0.61;100.00;99582.75;4532127;31;20118;-71
2023/01/29 09:45:52;;;;;;;7.10;2.53;;;;;;;-0.59;100.00;99593.88;4532660;31;20113;-71
2023/01/29 09:48:22;;;;;;;5.15;2.47;;;;;;;-0.71;100.00;99589.09;4533084;31;20079;-72
2023/01/29 09:50:51;;;;;;;11.00;3.80;;;;;;;-0.65;100.00;99591.47;4532881;31;20090;-71
2023/01/29 09:53:28;;;;;;;11.50;3.72;;;;;;;-0.72;100.00;99598.53;4526571;31;20163;-72
2023/01/29 09:56:01;;;;;;;9.32;4.55;;;;;;;-0.80;100.00;99587.63;4514022;31;20091;-72
2023/01/29 09:58:35;;;;;;;9.48;4.20;;;;;;;-0.78;100.00;99592.72;4513933;31;20572;-71
2023/01/29 10:01:22;;;;;;;8.63;3.70;;;;;;;-0.45;100.00;99590.03;4501027;31;20155;-71
2023/01/29 10:04:11;;;;;;;12.07;4.75;;;;;;;-0.40;100.00;99598.44;4513801;31;20186;-71
2023/01/29 10:07:02;;;;;;;11.63;3.85;;;;;;;-0.59;100.00;99599.03;4515072;31;20563;-71
2023/01/29 10:10:06;;;;;;;7.57;3.92;;;;;;;-0.81;100.00;99608.25;4518908;31;20562;-72
2023/01/29 10:12:54;;;;;;;6.20;2.90;;;;;;;-0.95;100.00;99606.91;4517918;31;20125;-71
2023/01/29 10:15:34;;;;;;;8.90;4.15;;;;;;;-0.88;100.00;99602.44;4532600;31;20607;-71
2023/01/29 10:18:17;;;;;;;9.68;3.83;;;;;;;-0.94;100.00;99600.03;4518069;31;20083;-71
2023/01/29 10:21:23;;;;;;;8.30;3.30;;;;;;;-0.93;100.00;99605.13;4518303;31;20087;-72
2023/01/29 10:24:20;;;;;;;8.35;4.15;;;;;;;-0.90;100.00;99599.91;4435742;32;20132;-71
2023/01/29 10:26:48;;;;;;;8.18;3.92;;;;;;;-0.86;100.00;99603.25;4359976;32;20166;-71
2023/01/29 10:29:18;;;;;;;9.15;3.97;;;;;;;-0.98;100.00;99606.19;4359814;32;20103;-71
2023/01/29 10:31:50;;;;;;;7.72;3.15;;;;;;;-0.87;100.00;99598.16;4360034;32;20261;-71
2023/01/29 10:34:27;;;;;;;8.80;3.17;;;;;;;-0.87;100.00;99598.16;4360009;32;20701;-71
2023/01/29 10:36:55;;;;;;;9.82;3.67;;;;;;;-0.80;100.00;99603.06;4359703;32;20207;-71
2023/01/29 10:39:24;;;;;;;6.22;3.25;;;;;;;-0.79;100.00;99601.34;4359817;32;20214;-72
2023/01/29 10:42:19;;;;;;;8.77;4.10;;;;;;;-0.80;100.00;99610.78;4359644;32;20107;-71
2023/01/29 10:45:08;;;;;;;7.75;3.37;;;;;;;-0.78;100.00;99590.16;4359735;32;20482;-71
2023/01/29 10:47:53;;;;;;;8.75;3.83;;;;;;;-0.73;100.00;99590.84;4359835;32;20461;-71
2023/01/29 10:50:47;;;;;;;12.32;4.40;;;;;;;-0.70;100.00;99585.62;4359813;32;20143;-71
2023/01/29 10:53:14;;;;;;;5.78;3.28;;;;;;;-0.76;100.00;99575.50;4359776;32;20203;-72
2023/01/29 10:55:50;;;;;;;11.57;4.15;;;;;;;-0.59;100.00;99570.72;4349227;32;20114;-72
2023/01/29 10:58:33;;;;;;;10.32;4.57;;;;;;;-0.59;100.00;99573.28;4371026;32;20490;-71
2023/01/29 11:01:00;;;;;;;11.40;4.53;;;;;;;-0.64;100.00;99575.13;4422285;32;20493;-71
2023/01/29 11:03:32;;;;;;;9.68;4.22;;;;;;;-0.83;100.00;99566.28;4470247;31;20146;-71
2023/01/29 11:06:11;;;;;;;11.20;4.47;;;;;;;-0.72;100.00;99562.50;4518218;31;20118;-71
2023/01/29 11:09:03;;;;;;;9.13;4.43;;;;;;;-0.61;100.00;99551.06;4518027;31;20432;-72
2023/01/29 11:11:42;;;;;;;8.90;4.57;;;;;;;-0.52;100.00;99557.66;4533848;31;20150;-71
2023/01/29 11:14:13;;;;;;;8.35;4.00;;;;;;;-0.26;100.00;99555.09;4534201;31;20098;-72
2023/01/29 11:16:42;;;;;;;11.32;4.82;;;;;;;-0.17;100.00;99559.09;4533683;31;20091;-71
2023/01/29 11:19:10;;;;;;;9.48;4.97;;;;;;;-0.07;100.00;99560.47;4519487;31;20841;-71
2023/01/29 11:21:57;;;;;;;10.55;5.25;;;;;;;-0.19;100.00;99550.59;4533824;31;20122;-71
2023/01/29 11:24:25;;;;;;;6.35;3.53;;;;;;;0.01;100.00;99549.91;4532872;31;20109;-71
2023/01/29 11:26:57;;;;;;;9.50;4.47;;;;;;;-0.33;100.00;99533.00;4534010;31;20117;-71
2023/01/29 11:29:48;;;;;;;9.68;3.75;;;;;;;-0.22;96.94;99528.34;4532847;31;20142;-71
2023/01/29 11:32:25;;;;;;;7.05;3.25;;;;;;;-0.13;96.71;99531.53;4525470;31;20167;-71
2023/01/29 11:35:13;;;;;;;5.85;3.22;;;;;;;-0.25;97.52;99530.19;4532689;31;20091;-71
2023/01/29 11:37:42;;;;;;;8.70;2.85;;;;;;;-0.17;97.35;99517.88;4533616;31;20084;-71
2023/01/29 11:40:19;;;;;;;7.70;3.92;;;;;;;-0.35;97.07;99521.91;4533789;31;20511;-71
2023/01/29 11:42:47;;;;;;;7.30;3.97;;;;;;;-0.24;98.59;99517.25;4533617;31;20080;-71
2023/01/29 11:45:28;;;;;;;10.05;4.32;;;;;;;-0.26;99.12;99519.06;4533981;31;20126;-71
2023/01/29 11:47:56;;;;;;;8.10;3.33;;;;;;;-0.41;99.59;99516.97;4533769;31;20128;-71
2023/01/29 11:50:25;;;;;;;10.15;3.95;;;;;;;-0.54;98.45;99514.78;4533822;31;20460;-72
2023/01/29 11:52:53;;;;;;;6.25;3.05;;;;;;;-0.65;99.20;99500.56;4533501;31;20107;-71
2023/01/29 11:55:31;;;;;;;5.72;2.60;;;;;;;-0.85;98.00;99499.44;4533810;31;20156;-71
2023/01/29 11:58:26;;;;;;;9.00;3.28;;;;;;;-0.77;95.82;99494.09;4532490;31;20099;-71
2023/01/29 12:00:54;;;;;;;5.45;2.83;;;;;;;-1.08;97.31;99488.13;4533848;31;20112;-71
2023/01/29 12:03:35;;;;;;;7.22;3.37;;;;;;;-1.10;98.25;99482.19;4532232;31;20079;-71
2023/01/29 12:06:22;;;;;;;7.97;3.58;;;;;;;-1.23;99.03;99487.75;4533111;31;20102;-71
2023/01/29 12:08:56;;;;;;;8.45;3.70;;;;;;;-1.13;100.00;99487.44;4532231;31;20125;-71
2023/01/29 12:11:28;;;;;;;10.55;4.05;;;;;;;-0.88;99.77;99484.13;4533390;31;20162;-71
2023/01/29 12:14:00;;;;;;;6.28;3.53;;;;;;;-0.68;98.12;99488.66;4533505;31;20105;-71
2023/01/29 12:16:32;;;;;;;7.95;3.22;;;;;;;-0.75;99.11;99475.13;4533272;31;20175;-71
2023/01/29 12:19:26;;;;;;;11.57;4.03;;;;;;;-0.73;97.04;99477.66;4533287;31;20189;-71
2023/01/29 12:22:19;;;;;;;5.93;3.78;;;;;;;-0.90;97.74;99468.72;4514511;31;20358;-71